Time;durP1;ratioP1;P1;durP2;ratioP2;P2;SDS_P1;SDS_P2;PMS_P1;PMS_P2;Temp;Humidity;BMP_temperature;BMP_pressure;BME280_temperature;BME280_humidity;BME280_pressure;Samples;Min_cycle;Max_cycle;Signal;HPM_P1;HPM_P2
2022/01/21 00:00:44;;;;;;;;;;;19.50;54.70;;;;;;5073855;28;1460;-68
2022/01/21 00:03:10;;;;;;;;;;;19.50;54.80;;;;;;5073947;28;1612;-68
2022/01/21 00:05:35;;;;;;;;;;;19.50;54.80;;;;;;5075063;28;1258;-68
2022/01/21 00:08:00;;;;;;;;;;;19.50;54.80;;;;;;5073259;28;1906;-68
2022/01/21 00:10:26;;;;;;;;;;;19.50;54.90;;;;;;5074810;28;1024;-68
2022/01/21 00:12:53;;;;;;;;;;;19.50;54.90;;;;;;5072723;28;1419;-69
2022/01/21 00:15:19;;;;;;;;;;;19.50;54.90;;;;;;5065465;28;1223;-68
2022/01/21 00:17:44;;;;;;;;;;;19.50;54.90;;;;;;5067178;28;1362;-68
2022/01/21 00:31:06;;;;;;;;;;;19.50;55.70;;;;;;5073180;28;1075;-69
2022/01/21 00:33:32;;;;;;;;;;;19.40;55.00;;;;;;5054088;28;1380;-68
2022/01/21 00:35:58;;;;;;;;;;;19.40;55.10;;;;;;5074351;28;1146;-69
2022/01/21 00:38:26;;;;;;;;;;;19.40;55.10;;;;;;5074098;28;1188;-69
2022/01/21 00:40:51;;;;;;;;;;;19.40;55.10;;;;;;5074477;28;1363;-68
2022/01/21 00:43:30;;;;;;;;;;;19.40;55.20;;;;;;5074220;28;1031;-69
2022/01/21 00:45:55;;;;;;;;;;;19.40;55.20;;;;;;5072971;28;1386;-68
2022/01/21 00:48:21;;;;;;;;;;;19.40;55.20;;;;;;5072417;28;1898;-70
2022/01/21 00:50:47;;;;;;;;;;;19.40;55.20;;;;;;5072813;28;1083;-68
2022/01/21 00:53:13;;;;;;;;;;;19.30;55.20;;;;;;5073884;28;1418;-68
2022/01/21 00:55:38;;;;;;;;;;;19.30;55.20;;;;;;5073659;28;1263;-68
2022/01/21 00:58:04;;;;;;;;;;;19.40;55.30;;;;;;5073317;28;1264;-68
2022/01/21 01:00:29;;;;;;;;;;;19.30;55.20;;;;;;5073284;28;1340;-71
2022/01/21 01:02:54;;;;;;;;;;;19.40;55.30;;;;;;5073682;28;1418;-68
2022/01/21 01:05:20;;;;;;;;;;;19.40;55.30;;;;;;5073455;28;1059;-68
2022/01/21 01:07:45;;;;;;;;;;;19.40;55.30;;;;;;5073001;28;1902;-70
2022/01/21 01:10:17;;;;;;;;;;;19.30;55.30;;;;;;5073598;28;1392;-68
2022/01/21 01:20:39;;;;;;;;;;;19.40;55.30;;;;;;5073149;28;1062;-68
2022/01/21 01:23:19;;;;;;;;;;;19.40;55.30;;;;;;5055034;28;1256;-69
2022/01/21 01:28:28;;;;;;;;;;;19.40;55.30;;;;;;5073115;28;1972;-69
2022/01/21 01:30:54;;;;;;;;;;;19.40;55.30;;;;;;5073318;28;1389;-68
2022/01/21 01:33:24;;;;;;;;;;;19.30;55.20;;;;;;5067149;28;1250;-70
2022/01/21 01:35:50;;;;;;;;;;;19.40;55.30;;;;;;5067574;28;1219;-68
2022/01/21 01:39:05;;;;;;;;;;;19.40;55.20;;;;;;5062686;28;1259;-68
2022/01/21 01:41:09;;;;;;;;;;;19.40;55.30;;;;;;5061559;28;1210;-68
2022/01/21 01:49:32;;;;;;;;;;;19.40;55.80;;;;;;5042841;28;1133;-68
2022/01/21 01:51:57;;;;;;;;;;;19.40;55.20;;;;;;5057553;28;1362;-72
2022/01/21 01:54:23;;;;;;;;;;;19.40;55.20;;;;;;5063103;28;1279;-70
2022/01/21 01:56:50;;;;;;;;;;;19.30;55.20;;;;;;5064837;28;1284;-70
2022/01/21 01:59:15;;;;;;;;;;;19.40;55.20;;;;;;5059889;28;1724;-69
2022/01/21 02:01:40;;;;;;;;;;;19.40;55.20;;;;;;5066319;28;1215;-69
2022/01/21 02:04:06;;;;;;;;;;;19.40;55.20;;;;;;5064531;28;1234;-69
2022/01/21 02:06:31;;;;;;;;;;;19.40;55.20;;;;;;5064165;28;1401;-69
2022/01/21 02:08:57;;;;;;;;;;;19.30;55.10;;;;;;5063325;28;1906;-67
2022/01/21 02:11:22;;;;;;;;;;;19.30;55.10;;;;;;5066147;28;1447;-68
2022/01/21 02:13:55;;;;;;;;;;;19.30;55.10;;;;;;5064663;28;1144;-67
2022/01/21 02:21:36;;;;;;;;;;;19.40;55.20;;;;;;5062180;28;1171;-69
2022/01/21 02:24:03;;;;;;;;;;;19.30;55.20;;;;;;5065974;28;1243;-66
2022/01/21 02:26:29;;;;;;;;;;;19.40;55.20;;;;;;5064238;28;1309;-66
2022/01/21 02:28:55;;;;;;;;;;;19.40;55.20;;;;;;5066513;28;1953;-68
2022/01/21 02:31:21;;;;;;;;;;;19.30;55.20;;;;;;5063235;28;1211;-67
2022/01/21 02:33:46;;;;;;;;;;;19.30;55.20;;;;;;5064734;28;1326;-67
2022/01/21 02:36:12;;;;;;;;;;;19.40;55.20;;;;;;5064663;28;1274;-69
2022/01/21 02:38:37;;;;;;;;;;;19.30;55.20;;;;;;5072474;28;1336;-70
2022/01/21 02:41:03;;;;;;;;;;;19.30;55.20;;;;;;5072628;28;1397;-68
2022/01/21 02:43:28;;;;;;;;;;;19.30;55.20;;;;;;5071340;28;1190;-69
2022/01/21 02:45:54;;;;;;;;;;;19.30;55.20;;;;;;5072951;28;1369;-68
2022/01/21 02:48:21;;;;;;;;;;;19.30;55.20;;;;;;5070743;28;1910;-68
2022/01/21 02:50:47;;;;;;;;;;;19.30;55.20;;;;;;5071241;28;1079;-67
2022/01/21 02:53:26;;;;;;;;;;;19.30;55.20;;;;;;5072490;28;1371;-68
2022/01/21 02:55:51;;;;;;;;;;;19.30;55.20;;;;;;5073555;28;1094;-68
2022/01/21 02:58:17;;;;;;;;;;;19.30;55.20;;;;;;5074713;28;1334;-67
2022/01/21 03:00:42;;;;;;;;;;;19.30;55.20;;;;;;5076218;28;1414;-67
2022/01/21 03:03:08;;;;;;;;;;;19.30;55.30;;;;;;5076102;28;1098;-68
2022/01/21 03:05:35;;;;;;;;;;;19.30;55.30;;;;;;5076234;28;1142;-67
2022/01/21 03:08:00;;;;;;;;;;;19.30;55.30;;;;;;5075803;28;1910;-68
2022/01/21 03:10:26;;;;;;;;;;;19.30;55.30;;;;;;5075085;28;1075;-69
2022/01/21 03:12:52;;;;;;;;;;;19.30;55.30;;;;;;5075955;28;1320;-69
2022/01/21 03:15:17;;;;;;;;;;;19.30;55.30;;;;;;5076133;28;1135;-69
2022/01/21 03:17:42;;;;;;;;;;;19.30;55.30;;;;;;5075402;28;1352;-69
2022/01/21 03:20:08;;;;;;;;;;;19.30;55.30;;;;;;5076007;28;1321;-68
2022/01/21 03:22:34;;;;;;;;;;;19.30;55.20;;;;;;5074608;28;1357;-68
2022/01/21 03:24:59;;;;;;;;;;;19.30;55.30;;;;;;5074709;28;1322;-69
2022/01/21 03:27:24;;;;;;;;;;;19.30;55.20;;;;;;5075405;28;1890;-69
2022/01/21 03:29:50;;;;;;;;;;;19.30;55.30;;;;;;5075749;28;1239;-69
2022/01/21 03:32:15;;;;;;;;;;;19.30;55.20;;;;;;5075410;28;1384;-69
2022/01/21 03:34:41;;;;;;;;;;;19.30;55.30;;;;;;5074508;28;1075;-68
2022/01/21 03:37:06;;;;;;;;;;;19.30;55.30;;;;;;5071696;28;2380;-68
2022/01/21 03:39:32;;;;;;;;;;;19.30;55.30;;;;;;5067529;28;1040;-69
2022/01/21 03:41:57;;;;;;;;;;;19.30;55.30;;;;;;5074325;28;1004;-69
2022/01/21 03:44:22;;;;;;;;;;;19.30;55.30;;;;;;5075572;28;1320;-68
2022/01/21 03:46:48;;;;;;;;;;;19.30;55.30;;;;;;5074034;28;1962;-69
2022/01/21 03:49:13;;;;;;;;;;;19.20;55.30;;;;;;5074065;28;1291;-68
2022/01/21 03:51:39;;;;;;;;;;;19.30;55.40;;;;;;5075238;28;1319;-70
2022/01/21 03:54:04;;;;;;;;;;;19.20;55.30;;;;;;5075574;28;1066;-68
2022/01/21 03:56:30;;;;;;;;;;;19.20;55.30;;;;;;5075046;28;1442;-68
2022/01/21 03:58:55;;;;;;;;;;;19.20;55.40;;;;;;5092993;22;1963;-66
2022/01/21 04:01:23;;;;;;;;;;;19.20;55.40;;;;;;5075298;28;960;-68
2022/01/21 04:03:48;;;;;;;;;;;19.20;55.40;;;;;;5075465;28;925;-69
2022/01/21 04:06:14;;;;;;;;;;;19.20;55.40;;;;;;5075377;28;1237;-67
2022/01/21 04:08:39;;;;;;;;;;;19.20;55.40;;;;;;5058612;28;1906;-67
2022/01/21 04:11:05;;;;;;;;;;;19.20;55.40;;;;;;5055016;28;1387;-67
2022/01/21 04:13:30;;;;;;;;;;;19.20;55.40;;;;;;5055369;28;1405;-66
2022/01/21 04:15:56;;;;;;;;;;;19.20;55.40;;;;;;5053669;28;1403;-67
2022/01/21 04:18:22;;;;;;;;;;;19.20;55.40;;;;;;5053571;28;1714;-67
2022/01/21 04:20:48;;;;;;;;;;;19.20;55.40;;;;;;5046412;28;1465;-67
2022/01/21 04:23:13;;;;;;;;;;;19.20;55.50;;;;;;5042468;28;1404;-67
2022/01/21 04:25:39;;;;;;;;;;;19.20;55.50;;;;;;5051672;28;1651;-67
2022/01/21 04:28:04;;;;;;;;;;;19.20;55.40;;;;;;5054446;28;2214;-67
2022/01/21 04:30:30;;;;;;;;;;;19.20;55.40;;;;;;5053244;28;1678;-67
2022/01/21 04:32:55;;;;;;;;;;;19.20;55.40;;;;;;5025915;28;1750;-67
2022/01/21 04:35:21;;;;;;;;;;;19.20;55.40;;;;;;5051216;28;1516;-68
2022/01/21 04:37:54;;;;;;;;;;;19.20;55.50;;;;;;5054424;28;1345;-68
2022/01/21 04:40:22;;;;;;;;;;;19.20;55.50;;;;;;5053514;28;1727;-67
2022/01/21 04:48:16;;;;;;;;;;;19.20;55.40;;;;;;5054241;28;1906;-66
2022/01/21 04:50:53;;;;;;;;;;;19.20;55.40;;;;;;5054446;28;1376;-66
2022/01/21 04:53:18;;;;;;;;;;;19.20;55.40;;;;;;5053312;28;1297;-66
2022/01/21 04:55:44;;;;;;;;;;;19.20;55.40;;;;;;5054290;28;1482;-68
2022/01/21 04:58:09;;;;;;;;;;;19.20;55.40;;;;;;5052638;28;1621;-68
2022/01/21 05:00:35;;;;;;;;;;;19.20;55.40;;;;;;5052963;28;1384;-67
2022/01/21 05:03:00;;;;;;;;;;;19.10;55.40;;;;;;5054106;28;1142;-69
2022/01/21 05:05:26;;;;;;;;;;;19.10;55.90;;;;;;5053068;28;1409;-68
2022/01/21 05:07:52;;;;;;;;;;;19.20;55.40;;;;;;5052400;28;1905;-67
2022/01/21 05:10:17;;;;;;;;;;;19.20;55.40;;;;;;5053903;28;1440;-66
2022/01/21 05:12:43;;;;;;;;;;;19.20;55.50;;;;;;5053770;28;1201;-67
2022/01/21 05:15:18;;;;;;;;;;;19.20;55.50;;;;;;5036006;28;1666;-68
2022/01/21 05:17:48;;;;;;;;;;;19.20;55.40;;;;;;5052403;28;1760;-66
2022/01/21 05:20:14;;;;;;;;;;;19.30;55.40;;;;;;5052099;28;1649;-68
2022/01/21 05:22:39;;;;;;;;;;;19.40;55.30;;;;;;5052494;28;1393;-68
2022/01/21 05:25:05;;;;;;;;;;;19.40;55.10;;;;;;5053705;28;1372;-68
2022/01/21 05:27:30;;;;;;;;;;;19.50;55.10;;;;;;5052241;28;1910;-68
2022/01/21 05:29:56;;;;;;;;;;;19.50;54.90;;;;;;5053545;28;1465;-67
2022/01/21 05:32:21;;;;;;;;;;;19.60;54.70;;;;;;5053571;28;1431;-67
2022/01/21 05:34:46;;;;;;;;;;;19.70;54.60;;;;;;5053527;28;1415;-67
2022/01/21 05:37:12;;;;;;;;;;;19.70;54.40;;;;;;5053025;28;1535;-67
2022/01/21 05:39:37;;;;;;;;;;;19.80;54.30;;;;;;5053440;28;1378;-67
2022/01/21 05:42:04;;;;;;;;;;;19.80;54.10;;;;;;5053385;28;1436;-67
2022/01/21 05:46:55;;;;;;;;;;;19.90;53.90;;;;;;5053303;28;1898;-67
2022/01/21 05:49:21;;;;;;;;;;;19.90;53.80;;;;;;5053289;28;1683;-67
2022/01/21 05:51:47;;;;;;;;;;;19.90;53.70;;;;;;5051962;28;1751;-67
2022/01/21 05:54:13;;;;;;;;;;;20.00;53.70;;;;;;5053281;28;1623;-67
2022/01/21 05:56:39;;;;;;;;;;;20.00;53.60;;;;;;5053290;28;1752;-67
2022/01/21 05:59:05;;;;;;;;;;;20.00;53.50;;;;;;5052971;28;1630;-67
2022/01/21 06:01:31;;;;;;;;;;;20.00;53.50;;;;;;5053479;28;1718;-69
2022/01/21 06:03:56;;;;;;;;;;;20.00;53.50;;;;;;5052164;28;1569;-68
2022/01/21 06:06:22;;;;;;;;;;;20.00;53.40;;;;;;5052792;28;1641;-69
2022/01/21 06:08:47;;;;;;;;;;;20.10;53.40;;;;;;5051580;28;1930;-69
2022/01/21 06:11:12;;;;;;;;;;;20.10;53.40;;;;;;5052980;28;1660;-69
2022/01/21 06:13:38;;;;;;;;;;;20.10;53.40;;;;;;5053210;28;1369;-67
2022/01/21 06:16:04;;;;;;;;;;;20.10;53.40;;;;;;5052980;28;1439;-67
2022/01/21 06:18:29;;;;;;;;;;;20.10;53.40;;;;;;5052759;28;1646;-67
2022/01/21 06:20:55;;;;;;;;;;;20.10;53.30;;;;;;5052713;28;1408;-66
2022/01/21 06:23:20;;;;;;;;;;;20.10;53.30;;;;;;5052836;28;1668;-68
2022/01/21 06:25:46;;;;;;;;;;;20.10;53.30;;;;;;5047537;28;1428;-68
2022/01/21 06:28:11;;;;;;;;;;;20.10;53.30;;;;;;5044392;28;1886;-68
2022/01/21 06:30:37;;;;;;;;;;;20.10;53.30;;;;;;5038431;28;1526;-68
2022/01/21 06:33:02;;;;;;;;;;;20.10;53.20;;;;;;5057106;28;1680;-68
2022/01/21 06:35:28;;;;;;;;;;;20.10;53.30;;;;;;5056782;28;1685;-68
2022/01/21 06:37:53;;;;;;;;;;;20.10;53.20;;;;;;5056640;28;1582;-68
2022/01/21 06:40:20;;;;;;;;;;;20.10;53.20;;;;;;5056630;28;1677;-68
2022/01/21 06:42:48;;;;;;;;;;;20.10;53.30;;;;;;5056881;28;1430;-68
2022/01/21 06:45:14;;;;;;;;;;;20.10;53.20;;;;;;5055668;28;1708;-68
2022/01/21 06:47:39;;;;;;;;;;;20.10;53.30;;;;;;5056325;28;1898;-67
2022/01/21 06:50:05;;;;;;;;;;;20.10;53.30;;;;;;5056453;28;1647;-68
2022/01/21 06:52:30;;;;;;;;;;;20.10;53.30;;;;;;5056199;28;1368;-67
2022/01/21 06:54:56;;;;;;;;;;;20.10;53.30;;;;;;5056645;28;1431;-66
2022/01/21 06:57:22;;;;;;;;;;;20.10;53.30;;;;;;5054879;28;1688;-67
2022/01/21 06:59:47;;;;;;;;;;;20.10;53.30;;;;;;5055437;28;1681;-67
2022/01/21 07:02:13;;;;;;;;;;;20.10;53.10;;;;;;5055256;28;1681;-67
2022/01/21 07:04:38;;;;;;;;;;;20.10;49.40;;;;;;5055119;28;1731;-69
2022/01/21 07:07:04;;;;;;;;;;;20.00;49.30;;;;;;5055914;28;1914;-68
2022/01/21 07:09:30;;;;;;;;;;;20.00;49.50;;;;;;5049759;28;2006;-70
2022/01/21 07:11:55;;;;;;;;;;;20.00;49.80;;;;;;5051797;28;2125;-67
2022/01/21 07:14:21;;;;;;;;;;;20.00;49.80;;;;;;5053582;28;1421;-67
2022/01/21 07:16:46;;;;;;;;;;;20.00;50.10;;;;;;5055539;28;1570;-67
2022/01/21 07:19:13;;;;;;;;;;;20.00;50.30;;;;;;5043376;28;2091;-66
2022/01/21 07:21:39;;;;;;;;;;;20.00;50.40;;;;;;5050728;28;1549;-66
2022/01/21 07:24:04;;;;;;;;;;;20.00;50.50;;;;;;5055422;28;1650;-66
2022/01/21 07:26:29;;;;;;;;;;;20.00;50.70;;;;;;5046808;28;1557;-64
2022/01/21 07:28:55;;;;;;;;;;;20.00;51.40;;;;;;5050950;28;1956;-65
2022/01/21 07:31:20;;;;;;;;;;;20.00;50.90;;;;;;5047013;28;1570;-66
2022/01/21 07:33:46;;;;;;;;;;;20.00;51.00;;;;;;5055511;28;1376;-66
2022/01/21 07:36:11;;;;;;;;;;;20.00;51.30;;;;;;5055475;28;1406;-66
2022/01/21 07:38:38;;;;;;;;;;;20.00;51.50;;;;;;5054211;28;1591;-66
2022/01/21 07:41:04;;;;;;;;;;;20.10;51.60;;;;;;5055554;28;1350;-69
2022/01/21 07:43:29;;;;;;;;;;;20.20;51.60;;;;;;5055326;28;1588;-69
2022/01/21 07:45:55;;;;;;;;;;;20.30;51.60;;;;;;5054514;28;1585;-69
2022/01/21 07:48:20;;;;;;;;;;;20.40;51.40;;;;;;5054618;28;1956;-68
2022/01/21 07:50:46;;;;;;;;;;;20.60;51.30;;;;;;5054224;28;1609;-68
2022/01/21 07:53:11;;;;;;;;;;;20.70;51.10;;;;;;5055595;28;1708;-70
2022/01/21 07:55:36;;;;;;;;;;;20.80;50.90;;;;;;5055549;28;1395;-70
2022/01/21 07:58:03;;;;;;;;;;;21.00;50.70;;;;;;5051407;28;1714;-70
2022/01/21 08:00:28;;;;;;;;;;;21.10;50.50;;;;;;5055184;28;1278;-69
2022/01/21 08:02:54;;;;;;;;;;;21.20;50.20;;;;;;5055078;28;1562;-69
2022/01/21 08:05:19;;;;;;;;;;;21.30;50.00;;;;;;5054057;28;1720;-69
2022/01/21 08:07:45;;;;;;;;;;;21.40;49.80;;;;;;5053164;28;1910;-69
2022/01/21 08:10:10;;;;;;;;;;;21.50;49.60;;;;;;5055203;28;1551;-67
2022/01/21 08:12:36;;;;;;;;;;;21.60;49.50;;;;;;5055172;28;1439;-67
2022/01/21 08:15:01;;;;;;;;;;;21.60;49.30;;;;;;5055158;28;1345;-67
2022/01/21 08:17:29;;;;;;;;;;;21.70;49.30;;;;;;5054786;28;1588;-67
2022/01/21 08:19:56;;;;;;;;;;;21.70;49.20;;;;;;5054997;28;984;-66
2022/01/21 08:22:22;;;;;;;;;;;21.80;49.20;;;;;;5054892;28;1410;-67
2022/01/21 08:24:48;;;;;;;;;;;21.80;49.20;;;;;;5054961;28;1370;-67
2022/01/21 08:27:14;;;;;;;;;;;21.80;49.30;;;;;;5054481;28;1894;-67
2022/01/21 08:29:39;;;;;;;;;;;21.80;49.30;;;;;;5053560;28;1530;-67
2022/01/21 08:32:05;;;;;;;;;;;21.80;49.40;;;;;;5054559;28;1417;-66
2022/01/21 08:34:34;;;;;;;;;;;21.80;49.40;;;;;;5053600;28;1770;-67
2022/01/21 08:37:00;;;;;;;;;;;21.80;49.50;;;;;;5054381;28;1577;-66
2022/01/21 08:39:25;;;;;;;;;;;21.80;49.60;;;;;;5053517;28;1682;-67
2022/01/21 08:41:51;;;;;;;;;;;21.80;49.60;;;;;;5054437;28;1499;-68
2022/01/21 08:44:16;;;;;;;;;;;21.70;49.60;;;;;;5054693;28;1607;-68
2022/01/21 08:46:42;;;;;;;;;;;21.70;49.70;;;;;;5054520;28;1670;-68
2022/01/21 08:49:08;;;;;;;;;;;21.70;49.60;;;;;;5054086;28;1906;-68
2022/01/21 08:51:40;;;;;;;;;;;21.70;49.70;;;;;;5054367;28;1702;-68
2022/01/21 08:54:05;;;;;;;;;;;21.70;49.70;;;;;;5053661;28;1529;-68
2022/01/21 08:56:31;;;;;;;;;;;21.70;49.70;;;;;;5054427;28;1396;-68
2022/01/21 08:58:56;;;;;;;;;;;21.70;49.70;;;;;;5053862;28;1636;-68
2022/01/21 09:01:22;;;;;;;;;;;21.60;49.70;;;;;;5053981;28;1353;-68
2022/01/21 09:03:47;;;;;;;;;;;21.60;49.80;;;;;;5054172;28;1654;-67
2022/01/21 09:06:16;;;;;;;;;;;21.60;49.80;;;;;;5054102;28;1553;-67
2022/01/21 09:08:43;;;;;;;;;;;21.60;49.90;;;;;;5053644;28;1910;-67
2022/01/21 09:11:09;;;;;;;;;;;21.60;50.00;;;;;;5053993;28;1699;-67
2022/01/21 09:13:40;;;;;;;;;;;21.50;50.00;;;;;;5053978;28;1679;-67
2022/01/21 09:16:05;;;;;;;;;;;21.50;50.10;;;;;;5053801;28;1552;-67
2022/01/21 09:18:44;;;;;;;;;;;21.50;50.20;;;;;;5052358;28;1586;-67
2022/01/21 09:21:09;;;;;;;;;;;21.40;50.20;;;;;;5052836;28;1494;-66
2022/01/21 09:23:35;;;;;;;;;;;21.40;50.30;;;;;;5048837;28;1513;-67
2022/01/21 09:26:00;;;;;;;;;;;21.40;50.40;;;;;;5050093;28;1690;-67
2022/01/21 09:28:26;;;;;;;;;;;21.40;50.40;;;;;;5047402;28;1973;-67
2022/01/21 09:30:51;;;;;;;;;;;21.40;50.40;;;;;;5045507;28;1610;-67
2022/01/21 09:33:17;;;;;;;;;;;21.40;50.60;;;;;;5049964;28;2105;-67
2022/01/21 09:35:42;;;;;;;;;;;21.30;50.50;;;;;;5053662;28;1461;-67
2022/01/21 09:38:07;;;;;;;;;;;21.30;50.60;;;;;;5053263;28;1728;-67
2022/01/21 09:40:33;;;;;;;;;;;21.30;50.70;;;;;;5049047;28;1500;-67
2022/01/21 09:42:58;;;;;;;;;;;21.30;50.80;;;;;;5048451;28;2073;-69
2022/01/21 09:45:24;;;;;;;;;;;21.20;50.80;;;;;;5051314;28;1633;-69
2022/01/21 09:47:52;;;;;;;;;;;21.20;50.80;;;;;;5043854;28;1993;-67
2022/01/21 09:50:18;;;;;;;;;;;21.20;50.90;;;;;;5050963;28;1687;-67
2022/01/21 09:52:47;;;;;;;;;;;21.20;50.90;;;;;;5046078;28;2145;-66
2022/01/21 09:55:13;;;;;;;;;;;21.20;51.00;;;;;;5041001;28;1439;-68
2022/01/21 09:57:40;;;;;;;;;;;21.10;51.00;;;;;;5057733;22;3767;-66
2022/01/21 10:00:07;;;;;;;;;;;21.10;51.00;;;;;;5043386;28;965;-67
2022/01/21 10:02:32;;;;;;;;;;;21.10;51.10;;;;;;5047290;28;1255;-66
2022/01/21 10:04:58;;;;;;;;;;;21.10;51.10;;;;;;5051855;28;1614;-68
2022/01/21 10:07:23;;;;;;;;;;;21.10;51.20;;;;;;5047973;28;1921;-68
2022/01/21 10:09:49;;;;;;;;;;;21.10;51.80;;;;;;5053061;28;1662;-68
2022/01/21 10:12:15;;;;;;;;;;;21.10;51.30;;;;;;5052805;28;1624;-67
2022/01/21 10:14:40;;;;;;;;;;;21.10;51.30;;;;;;5052004;28;1653;-68
2022/01/21 10:17:06;;;;;;;;;;;21.00;51.30;;;;;;5052707;28;1669;-67
2022/01/21 10:19:32;;;;;;;;;;;21.00;51.40;;;;;;5052947;28;1360;-69
2022/01/21 10:21:58;;;;;;;;;;;21.00;51.40;;;;;;5052869;28;1415;-69
2022/01/21 10:24:24;;;;;;;;;;;21.00;51.50;;;;;;5053073;28;1673;-68
2022/01/21 10:26:50;;;;;;;;;;;21.00;51.50;;;;;;5052676;28;1465;-69
2022/01/21 10:29:16;;;;;;;;;;;20.90;51.40;;;;;;5052413;28;1903;-69
2022/01/21 10:32:08;;;;;;;;;;;20.90;51.50;;;;;;5042235;28;1464;-69
2022/01/21 10:34:39;;;;;;;;;;;20.90;51.60;;;;;;5043319;28;1261;-69
2022/01/21 10:37:19;;;;;;;;;;;20.90;51.60;;;;;;5042811;28;1689;-68
2022/01/21 10:39:55;;;;;;;;;;;20.90;51.70;;;;;;5044430;28;1392;-68
2022/01/21 10:42:24;;;;;;;;;;;20.80;51.70;;;;;;5047709;28;1262;-67
2022/01/21 10:44:50;;;;;;;;;;;20.80;51.80;;;;;;5044252;28;1203;-69
2022/01/21 10:47:15;;;;;;;;;;;20.80;51.80;;;;;;5041426;28;1910;-69
2022/01/21 10:49:43;;;;;;;;;;;20.80;51.90;;;;;;5042946;28;1258;-68
2022/01/21 10:52:13;;;;;;;;;;;20.80;51.90;;;;;;5043373;28;1389;-69
2022/01/21 10:54:45;;;;;;;;;;;20.80;51.90;;;;;;5045486;28;1404;-69
2022/01/21 10:57:13;;;;;;;;;;;20.80;52.00;;;;;;5046610;28;1682;-69
2022/01/21 10:59:45;;;;;;;;;;;20.70;51.90;;;;;;5052521;28;1320;-69
2022/01/21 11:02:12;;;;;;;;;;;20.70;52.00;;;;;;5052332;28;1375;-69
2022/01/21 11:04:41;;;;;;;;;;;20.80;52.10;;;;;;5052600;28;1621;-69
2022/01/21 11:07:06;;;;;;;;;;;20.70;52.00;;;;;;5052256;28;1902;-67
2022/01/21 11:09:32;;;;;;;;;;;20.80;52.00;;;;;;5052367;28;1283;-69
2022/01/21 11:12:14;;;;;;;;;;;20.80;52.00;;;;;;5051103;28;1675;-69
2022/01/21 11:14:55;;;;;;;;;;;20.80;51.90;;;;;;5051097;28;1368;-69
2022/01/21 11:17:21;;;;;;;;;;;20.90;51.90;;;;;;5052079;28;1586;-69
2022/01/21 11:20:04;;;;;;;;;;;20.90;51.80;;;;;;5056100;28;1348;-68
2022/01/21 11:22:30;;;;;;;;;;;20.90;51.80;;;;;;5056109;28;1710;-69
2022/01/21 11:24:59;;;;;;;;;;;20.90;51.70;;;;;;5056221;28;1561;-69
2022/01/21 11:27:25;;;;;;;;;;;20.90;51.70;;;;;;5054163;28;1957;-67
2022/01/21 11:29:50;;;;;;;;;;;21.00;51.70;;;;;;5055979;28;1587;-67
2022/01/21 11:32:16;;;;;;;;;;;21.00;51.60;;;;;;5051267;28;2568;-69
2022/01/21 11:34:42;;;;;;;;;;;21.00;52.20;;;;;;5042623;28;1957;-67
2022/01/21 11:37:07;;;;;;;;;;;21.00;51.60;;;;;;5047309;28;1690;-67
2022/01/21 11:39:33;;;;;;;;;;;21.00;51.60;;;;;;5048599;28;1423;-68
2022/01/21 11:41:58;;;;;;;;;;;21.00;51.60;;;;;;5055333;28;1723;-68
2022/01/21 11:44:26;;;;;;;;;;;21.00;51.60;;;;;;5054666;28;1590;-68
2022/01/21 11:47:01;;;;;;;;;;;21.00;51.60;;;;;;5054615;28;1440;-69
2022/01/21 11:49:27;;;;;;;;;;;21.00;51.60;;;;;;5054371;28;1826;-68
2022/01/21 11:52:12;;;;;;;;;;;21.00;51.60;;;;;;5049866;28;1160;-68
2022/01/21 11:54:37;;;;;;;;;;;21.00;51.60;;;;;;5045221;28;2346;-68
2022/01/21 11:57:05;;;;;;;;;;;21.00;51.60;;;;;;5048375;28;1390;-68
2022/01/21 12:01:57;;;;;;;;;;;20.90;51.60;;;;;;5047766;28;1368;-67
2022/01/21 12:04:40;;;;;;;;;;;21.00;51.70;;;;;;5046185;28;1291;-68
2022/01/21 12:07:26;;;;;;;;;;;20.90;51.70;;;;;;5044688;28;1906;-67
2022/01/21 12:09:55;;;;;;;;;;;20.90;51.70;;;;;;5046456;28;1236;-69
2022/01/21 12:12:21;;;;;;;;;;;20.90;51.80;;;;;;5046731;28;1307;-67
2022/01/21 12:14:52;;;;;;;;;;;20.90;51.80;;;;;;5047840;28;1312;-67
2022/01/21 12:17:35;;;;;;;;;;;20.90;51.80;;;;;;5047284;28;1303;-67
2022/01/21 12:20:03;;;;;;;;;;;20.90;51.90;;;;;;5045716;28;1292;-70
2022/01/21 12:22:29;;;;;;;;;;;20.90;51.80;;;;;;5047868;28;1618;-70
2022/01/21 12:24:56;;;;;;;;;;;20.80;51.90;;;;;;5044972;28;1296;-70
2022/01/21 12:27:23;;;;;;;;;;;20.90;52.00;;;;;;5044221;28;1902;-70
2022/01/21 12:29:48;;;;;;;;;;;20.90;51.90;;;;;;5046185;28;1363;-70
2022/01/21 12:32:25;;;;;;;;;;;20.90;51.90;;;;;;5044594;28;2165;-70
2022/01/21 12:35:00;;;;;;;;;;;20.90;51.90;;;;;;5045872;28;1209;-70
2022/01/21 12:37:37;;;;;;;;;;;20.90;51.80;;;;;;5046085;28;1280;-68
2022/01/21 12:40:03;;;;;;;;;;;21.00;51.80;;;;;;5046826;28;1380;-68
2022/01/21 12:42:32;;;;;;;;;;;21.00;51.70;;;;;;5045324;28;1513;-69
2022/01/21 12:45:17;;;;;;;;;;;21.10;51.70;;;;;;5046521;28;1446;-69
2022/01/21 12:47:46;;;;;;;;;;;21.10;51.60;;;;;;5041570;28;1969;-66
2022/01/21 12:50:17;;;;;;;;;;;21.20;51.50;;;;;;5044459;28;1291;-66
2022/01/21 12:53:34;;;;;;;;;;;21.20;51.30;;;;;;5026884;28;1356;-68
2022/01/21 12:58:14;;;;;;;;;;;21.30;51.20;;;;;;5046261;28;1718;-67
2022/01/21 13:00:39;;;;;;;;;;;21.30;51.10;;;;;;5027222;28;1349;-68
2022/01/21 13:03:24;;;;;;;;;;;21.30;51.10;;;;;;5041927;28;1373;-68
2022/01/21 13:06:13;;;;;;;;;;;21.30;51.00;;;;;;5044891;28;1487;-69
2022/01/21 13:08:39;;;;;;;;;;;21.30;51.00;;;;;;5043532;28;1906;-66
2022/01/21 13:11:12;;;;;;;;;;;21.40;51.10;;;;;;5042791;28;2071;-68
2022/01/21 13:13:59;;;;;;;;;;;21.30;51.00;;;;;;5049378;28;1513;-70
2022/01/21 13:16:25;;;;;;;;;;;21.30;51.00;;;;;;5053713;28;1768;-70
2022/01/21 13:18:51;;;;;;;;;;;21.30;51.00;;;;;;5053394;28;1650;-69
2022/01/21 13:21:16;;;;;;;;;;;21.30;51.00;;;;;;5052279;28;1647;-70
2022/01/21 13:23:47;;;;;;;;;;;21.30;51.00;;;;;;5051686;28;1971;-68
2022/01/21 13:26:16;;;;;;;;;;;21.30;51.10;;;;;;5042185;28;1397;-69
2022/01/21 13:28:54;;;;;;;;;;;21.30;51.10;;;;;;5042237;28;1914;-68
2022/01/21 13:31:19;;;;;;;;;;;21.30;51.10;;;;;;5047004;28;1550;-69
2022/01/21 13:33:45;;;;;;;;;;;21.30;51.10;;;;;;5049331;28;1653;-69
2022/01/21 13:36:11;;;;;;;;;;;21.30;51.10;;;;;;5045705;28;1588;-69
2022/01/21 13:38:36;;;;;;;;;;;21.30;51.20;;;;;;5051685;28;1411;-68
2022/01/21 13:41:07;;;;;;;;;;;21.30;51.20;;;;;;5051512;28;1562;-67
2022/01/21 13:43:32;;;;;;;;;;;21.20;51.20;;;;;;5045272;28;1561;-69
2022/01/21 13:46:01;;;;;;;;;;;21.20;51.20;;;;;;5046044;28;1480;-70
2022/01/21 13:48:27;;;;;;;;;;;21.20;51.20;;;;;;5038055;28;1958;-70
2022/01/21 13:50:53;;;;;;;;;;;21.20;51.90;;;;;;5051778;28;1112;-69
2022/01/21 13:53:19;;;;;;;;;;;21.20;51.30;;;;;;5051962;28;1645;-68
2022/01/21 13:55:45;;;;;;;;;;;21.20;51.40;;;;;;5051911;28;1716;-68
2022/01/21 13:58:11;;;;;;;;;;;21.20;51.40;;;;;;5052528;28;1237;-67
2022/01/21 14:00:41;;;;;;;;;;;21.10;51.50;;;;;;5051781;28;1657;-67
2022/01/21 14:03:07;;;;;;;;;;;21.10;51.40;;;;;;5053040;28;1694;-68
2022/01/21 14:05:47;;;;;;;;;;;21.10;51.50;;;;;;5051495;28;1392;-70
2022/01/21 14:08:13;;;;;;;;;;;21.10;51.50;;;;;;5052550;28;1959;-68
2022/01/21 14:10:38;;;;;;;;;;;21.10;51.50;;;;;;5052880;28;1435;-66
2022/01/21 14:13:04;;;;;;;;;;;21.10;51.60;;;;;;5051700;28;1602;-66
2022/01/21 14:15:29;;;;;;;;;;;21.10;51.60;;;;;;5051559;28;1392;-66
2022/01/21 14:17:55;;;;;;;;;;;21.00;51.60;;;;;;5051311;28;1620;-66
2022/01/21 14:20:21;;;;;;;;;;;21.00;51.60;;;;;;5051487;28;1599;-66
2022/01/21 14:22:47;;;;;;;;;;;21.00;51.70;;;;;;5052702;28;1574;-66
2022/01/21 14:25:13;;;;;;;;;;;21.00;51.70;;;;;;5052351;28;1408;-68
2022/01/21 14:27:38;;;;;;;;;;;21.00;51.80;;;;;;5052378;28;1952;-66
2022/01/21 14:30:05;;;;;;;;;;;21.00;51.80;;;;;;5051199;28;1698;-67
2022/01/21 14:32:38;;;;;;;;;;;21.00;51.80;;;;;;5052696;28;1435;-66
2022/01/21 14:35:11;;;;;;;;;;;21.00;51.80;;;;;;5052692;28;1660;-68
2022/01/21 14:37:40;;;;;;;;;;;20.90;52.40;;;;;;5052477;28;1655;-69
2022/01/21 14:40:06;;;;;;;;;;;20.90;51.80;;;;;;5052555;28;1338;-66
2022/01/21 14:42:31;;;;;;;;;;;20.90;51.90;;;;;;5051197;28;1598;-66
2022/01/21 14:44:57;;;;;;;;;;;20.90;51.90;;;;;;5052400;28;1391;-67
2022/01/21 14:47:25;;;;;;;;;;;20.90;51.90;;;;;;5050983;28;1966;-68
2022/01/21 14:50:07;;;;;;;;;;;20.90;51.90;;;;;;5051192;28;1491;-71
2022/01/21 14:52:45;;;;;;;;;;;20.90;52.00;;;;;;5054099;28;1575;-67
2022/01/21 14:55:26;;;;;;;;;;;20.80;52.00;;;;;;5038405;28;1699;-69
2022/01/21 14:57:52;;;;;;;;;;;20.90;52.10;;;;;;5054531;28;1318;-67
2022/01/21 15:00:21;;;;;;;;;;;20.80;52.10;;;;;;5056196;28;1644;-67
2022/01/21 15:02:46;;;;;;;;;;;20.80;52.10;;;;;;5056301;28;1362;-68
2022/01/21 15:05:12;;;;;;;;;;;20.80;52.20;;;;;;5056286;28;1677;-68
2022/01/21 15:07:38;;;;;;;;;;;20.80;52.20;;;;;;5048275;28;1910;-68
2022/01/21 15:10:16;;;;;;;;;;;20.80;52.20;;;;;;5052751;28;1860;-66
2022/01/21 15:15:29;;;;;;;;;;;20.70;52.20;;;;;;5052791;28;1448;-71
2022/01/21 15:17:55;;;;;;;;;;;20.70;52.30;;;;;;5045917;28;1608;-69
2022/01/21 15:20:23;;;;;;;;;;;20.70;52.30;;;;;;5038015;28;1216;-70